sensor_id;sensor_type;location;lat;lon;timestamp;P1;durP1;ratioP1;P2;durP2;ratioP2
15307;SDS011;7755;52.208;6.964;2022-10-22T00:00:25;5.17;;;4.77;;
15307;SDS011;7755;52.208;6.964;2022-10-22T00:04:27;6.80;;;6.20;;
15307;SDS011;7755;52.208;6.964;2022-10-22T00:08:28;6.87;;;5.90;;
15307;SDS011;7755;52.208;6.964;2022-10-22T00:12:31;6.00;;;5.40;;
15307;SDS011;7755;52.208;6.964;2022-10-22T00:16:34;8.97;;;8.00;;
15307;SDS011;7755;52.208;6.964;2022-10-22T00:20:36;7.00;;;6.40;;
15307;SDS011;7755;52.208;6.964;2022-10-22T00:24:38;8.37;;;7.57;;
15307;SDS011;7755;52.208;6.964;2022-10-22T00:28:40;10.03;;;9.03;;
15307;SDS011;7755;52.208;6.964;2022-10-22T00:32:43;11.20;;;9.03;;
15307;SDS011;7755;52.208;6.964;2022-10-22T00:36:45;9.60;;;8.70;;
15307;SDS011;7755;52.208;6.964;2022-10-22T00:40:47;9.47;;;8.57;;
15307;SDS011;7755;52.208;6.964;2022-10-22T00:45:00;10.73;;;9.17;;
15307;SDS011;7755;52.208;6.964;2022-10-22T00:49:08;10.30;;;9.30;;
15307;SDS011;7755;52.208;6.964;2022-10-22T00:53:11;9.60;;;8.77;;
15307;SDS011;7755;52.208;6.964;2022-10-22T00:57:14;11.27;;;9.80;;
15307;SDS011;7755;52.208;6.964;2022-10-22T01:01:17;9.17;;;8.37;;
15307;SDS011;7755;52.208;6.964;2022-10-22T01:05:24;8.57;;;7.77;;
15307;SDS011;7755;52.208;6.964;2022-10-22T01:09:28;9.77;;;8.80;;
15307;SDS011;7755;52.208;6.964;2022-10-22T01:13:42;9.47;;;8.57;;
15307;SDS011;7755;52.208;6.964;2022-10-22T01:17:54;8.70;;;7.90;;
15307;SDS011;7755;52.208;6.964;2022-10-22T01:22:02;8.33;;;7.53;;
15307;SDS011;7755;52.208;6.964;2022-10-22T01:26:11;9.43;;;8.27;;
15307;SDS011;7755;52.208;6.964;2022-10-22T01:30:23;11.53;;;9.73;;
15307;SDS011;7755;52.208;6.964;2022-10-22T01:34:26;9.27;;;8.20;;
15307;SDS011;7755;52.208;6.964;2022-10-22T01:38:29;8.70;;;7.93;;
15307;SDS011;7755;52.208;6.964;2022-10-22T01:42:32;9.43;;;8.53;;
15307;SDS011;7755;52.208;6.964;2022-10-22T01:46:35;8.07;;;7.37;;
15307;SDS011;7755;52.208;6.964;2022-10-22T01:55:21;9.93;;;8.90;;
15307;SDS011;7755;52.208;6.964;2022-10-22T01:59:31;10.67;;;9.67;;
15307;SDS011;7755;52.208;6.964;2022-10-22T02:03:43;8.40;;;7.70;;
15307;SDS011;7755;52.208;6.964;2022-10-22T02:07:49;9.13;;;8.30;;
15307;SDS011;7755;52.208;6.964;2022-10-22T02:11:54;9.50;;;8.60;;
15307;SDS011;7755;52.208;6.964;2022-10-22T02:15:58;9.30;;;8.50;;
15307;SDS011;7755;52.208;6.964;2022-10-22T02:20:03;8.17;;;7.43;;
15307;SDS011;7755;52.208;6.964;2022-10-22T02:24:08;8.50;;;7.60;;
15307;SDS011;7755;52.208;6.964;2022-10-22T02:28:11;8.53;;;7.63;;
15307;SDS011;7755;52.208;6.964;2022-10-22T02:32:17;8.40;;;7.53;;
15307;SDS011;7755;52.208;6.964;2022-10-22T02:36:25;9.33;;;8.43;;
15307;SDS011;7755;52.208;6.964;2022-10-22T02:40:28;8.73;;;7.93;;
15307;SDS011;7755;52.208;6.964;2022-10-22T02:44:31;9.03;;;8.23;;
15307;SDS011;7755;52.208;6.964;2022-10-22T02:48:33;9.83;;;8.70;;
15307;SDS011;7755;52.208;6.964;2022-10-22T02:52:36;8.17;;;7.27;;
15307;SDS011;7755;52.208;6.964;2022-10-22T02:56:38;8.10;;;7.40;;
15307;SDS011;7755;52.208;6.964;2022-10-22T03:00:40;8.43;;;7.30;;
15307;SDS011;7755;52.208;6.964;2022-10-22T03:04:41;6.97;;;6.37;;
15307;SDS011;7755;52.208;6.964;2022-10-22T03:08:44;9.03;;;8.00;;
15307;SDS011;7755;52.208;6.964;2022-10-22T03:12:46;7.27;;;6.57;;
15307;SDS011;7755;52.208;6.964;2022-10-22T03:16:48;8.63;;;6.63;;
15307;SDS011;7755;52.208;6.964;2022-10-22T03:20:52;7.43;;;6.73;;
15307;SDS011;7755;52.208;6.964;2022-10-22T03:25:05;6.50;;;5.90;;
15307;SDS011;7755;52.208;6.964;2022-10-22T03:29:10;9.73;;;7.23;;
15307;SDS011;7755;52.208;6.964;2022-10-22T03:33:14;9.10;;;8.27;;
15307;SDS011;7755;52.208;6.964;2022-10-22T03:37:16;7.63;;;6.67;;
15307;SDS011;7755;52.208;6.964;2022-10-22T03:41:19;9.70;;;8.90;;
15307;SDS011;7755;52.208;6.964;2022-10-22T03:45:21;11.20;;;8.97;;
15307;SDS011;7755;52.208;6.964;2022-10-22T03:49:23;6.97;;;6.37;;
15307;SDS011;7755;52.208;6.964;2022-10-22T03:53:25;7.20;;;6.50;;
15307;SDS011;7755;52.208;6.964;2022-10-22T03:57:28;7.33;;;6.43;;
15307;SDS011;7755;52.208;6.964;2022-10-22T04:01:30;6.67;;;6.03;;
15307;SDS011;7755;52.208;6.964;2022-10-22T04:05:31;6.83;;;6.27;;
15307;SDS011;7755;52.208;6.964;2022-10-22T04:09:33;6.40;;;5.90;;
15307;SDS011;7755;52.208;6.964;2022-10-22T04:13:37;6.37;;;5.77;;
15307;SDS011;7755;52.208;6.964;2022-10-22T04:17:39;6.23;;;5.73;;
15307;SDS011;7755;52.208;6.964;2022-10-22T04:21:41;6.67;;;6.07;;
15307;SDS011;7755;52.208;6.964;2022-10-22T04:25:42;7.27;;;6.43;;
15307;SDS011;7755;52.208;6.964;2022-10-22T04:29:45;6.90;;;6.30;;
15307;SDS011;7755;52.208;6.964;2022-10-22T04:33:50;7.60;;;6.90;;
15307;SDS011;7755;52.208;6.964;2022-10-22T04:37:53;6.30;;;5.70;;
15307;SDS011;7755;52.208;6.964;2022-10-22T04:41:55;6.33;;;5.70;;
15307;SDS011;7755;52.208;6.964;2022-10-22T04:46:00;6.37;;;5.87;;
15307;SDS011;7755;52.208;6.964;2022-10-22T04:50:02;6.80;;;6.20;;
15307;SDS011;7755;52.208;6.964;2022-10-22T04:54:04;6.70;;;6.10;;
15307;SDS011;7755;52.208;6.964;2022-10-22T04:58:05;6.57;;;6.13;;
15307;SDS011;7755;52.208;6.964;2022-10-22T05:02:09;6.20;;;5.60;;
15307;SDS011;7755;52.208;6.964;2022-10-22T05:06:10;7.80;;;7.03;;
15307;SDS011;7755;52.208;6.964;2022-10-22T05:10:13;7.10;;;6.43;;
15307;SDS011;7755;52.208;6.964;2022-10-22T05:14:15;6.77;;;6.17;;
15307;SDS011;7755;52.208;6.964;2022-10-22T05:18:19;6.80;;;6.13;;
15307;SDS011;7755;52.208;6.964;2022-10-22T05:22:21;8.83;;;7.97;;
15307;SDS011;7755;52.208;6.964;2022-10-22T05:26:23;9.23;;;7.93;;
15307;SDS011;7755;52.208;6.964;2022-10-22T05:30:25;6.97;;;6.30;;
15307;SDS011;7755;52.208;6.964;2022-10-22T05:34:28;7.83;;;7.13;;
15307;SDS011;7755;52.208;6.964;2022-10-22T05:38:30;6.90;;;6.40;;
15307;SDS011;7755;52.208;6.964;2022-10-22T05:42:32;9.37;;;8.13;;
15307;SDS011;7755;52.208;6.964;2022-10-22T05:46:34;8.87;;;8.00;;
15307;SDS011;7755;52.208;6.964;2022-10-22T05:50:38;10.50;;;9.40;;
15307;SDS011;7755;52.208;6.964;2022-10-22T05:54:39;10.53;;;9.23;;
15307;SDS011;7755;52.208;6.964;2022-10-22T05:58:42;9.97;;;8.97;;
15307;SDS011;7755;52.208;6.964;2022-10-22T06:02:47;9.40;;;8.57;;
15307;SDS011;7755;52.208;6.964;2022-10-22T06:06:51;8.07;;;7.27;;
15307;SDS011;7755;52.208;6.964;2022-10-22T06:10:53;8.80;;;7.97;;
15307;SDS011;7755;52.208;6.964;2022-10-22T06:14:55;9.50;;;8.67;;
15307;SDS011;7755;52.208;6.964;2022-10-22T06:18:57;12.33;;;10.53;;
15307;SDS011;7755;52.208;6.964;2022-10-22T06:23:02;14.60;;;11.97;;
15307;SDS011;7755;52.208;6.964;2022-10-22T06:27:04;11.97;;;10.63;;
15307;SDS011;7755;52.208;6.964;2022-10-22T06:31:05;13.97;;;11.47;;
15307;SDS011;7755;52.208;6.964;2022-10-22T06:35:07;13.23;;;11.17;;
15307;SDS011;7755;52.208;6.964;2022-10-22T06:39:12;10.97;;;9.90;;
15307;SDS011;7755;52.208;6.964;2022-10-22T06:43:14;19.13;;;11.30;;
15307;SDS011;7755;52.208;6.964;2022-10-22T06:47:16;13.23;;;10.93;;
15307;SDS011;7755;52.208;6.964;2022-10-22T06:51:18;19.17;;;12.33;;
15307;SDS011;7755;52.208;6.964;2022-10-22T06:55:22;16.03;;;11.83;;
15307;SDS011;7755;52.208;6.964;2022-10-22T06:59:24;19.47;;;11.90;;
15307;SDS011;7755;52.208;6.964;2022-10-22T07:03:26;16.13;;;12.00;;
15307;SDS011;7755;52.208;6.964;2022-10-22T07:07:27;11.03;;;9.80;;
15307;SDS011;7755;52.208;6.964;2022-10-22T07:11:31;12.27;;;10.37;;
15307;SDS011;7755;52.208;6.964;2022-10-22T07:15:39;14.77;;;10.80;;
15307;SDS011;7755;52.208;6.964;2022-10-22T07:19:41;13.17;;;10.23;;
15307;SDS011;7755;52.208;6.964;2022-10-22T07:23:43;12.67;;;9.77;;
15307;SDS011;7755;52.208;6.964;2022-10-22T07:27:46;14.77;;;10.07;;
15307;SDS011;7755;52.208;6.964;2022-10-22T07:31:48;13.87;;;10.30;;
15307;SDS011;7755;52.208;6.964;2022-10-22T07:35:50;12.97;;;9.77;;
15307;SDS011;7755;52.208;6.964;2022-10-22T07:39:52;10.57;;;9.47;;
15307;SDS011;7755;52.208;6.964;2022-10-22T07:43:55;11.70;;;9.80;;
15307;SDS011;7755;52.208;6.964;2022-10-22T07:47:57;10.23;;;9.13;;
15307;SDS011;7755;52.208;6.964;2022-10-22T07:51:59;10.57;;;8.83;;
15307;SDS011;7755;52.208;6.964;2022-10-22T07:56:01;10.80;;;8.47;;
15307;SDS011;7755;52.208;6.964;2022-10-22T08:00:05;11.23;;;8.47;;
15307;SDS011;7755;52.208;6.964;2022-10-22T08:04:14;9.93;;;7.40;;
15307;SDS011;7755;52.208;6.964;2022-10-22T08:08:15;12.43;;;7.27;;
15307;SDS011;7755;52.208;6.964;2022-10-22T08:12:17;9.23;;;6.87;;
15307;SDS011;7755;52.208;6.964;2022-10-22T08:16:20;7.73;;;5.80;;
15307;SDS011;7755;52.208;6.964;2022-10-22T08:20:22;11.63;;;7.03;;
15307;SDS011;7755;52.208;6.964;2022-10-22T08:24:24;10.27;;;7.70;;
15307;SDS011;7755;52.208;6.964;2022-10-22T08:28:27;9.37;;;7.07;;
15307;SDS011;7755;52.208;6.964;2022-10-22T08:32:31;8.03;;;6.20;;
15307;SDS011;7755;52.208;6.964;2022-10-22T08:36:33;8.60;;;5.77;;
15307;SDS011;7755;52.208;6.964;2022-10-22T08:40:37;12.27;;;6.80;;
15307;SDS011;7755;52.208;6.964;2022-10-22T08:44:47;9.37;;;6.03;;
15307;SDS011;7755;52.208;6.964;2022-10-22T08:49:00;8.50;;;6.20;;
15307;SDS011;7755;52.208;6.964;2022-10-22T08:53:06;9.43;;;5.90;;
15307;SDS011;7755;52.208;6.964;2022-10-22T08:57:23;9.83;;;6.10;;
15307;SDS011;7755;52.208;6.964;2022-10-22T09:01:42;12.50;;;5.77;;
15307;SDS011;7755;52.208;6.964;2022-10-22T09:06:03;9.07;;;5.47;;
15307;SDS011;7755;52.208;6.964;2022-10-22T09:10:10;9.97;;;5.90;;
15307;SDS011;7755;52.208;6.964;2022-10-22T09:14:13;8.70;;;6.10;;
15307;SDS011;7755;52.208;6.964;2022-10-22T09:18:21;9.43;;;5.90;;
15307;SDS011;7755;52.208;6.964;2022-10-22T09:22:33;7.67;;;5.47;;
15307;SDS011;7755;52.208;6.964;2022-10-22T09:26:42;10.13;;;5.17;;
15307;SDS011;7755;52.208;6.964;2022-10-22T09:30:44;8.53;;;4.80;;
15307;SDS011;7755;52.208;6.964;2022-10-22T09:34:47;8.27;;;4.93;;
15307;SDS011;7755;52.208;6.964;2022-10-22T09:38:51;6.23;;;4.03;;
15307;SDS011;7755;52.208;6.964;2022-10-22T09:42:53;6.97;;;4.90;;
15307;SDS011;7755;52.208;6.964;2022-10-22T09:46:55;13.57;;;4.63;;
15307;SDS011;7755;52.208;6.964;2022-10-22T09:51:04;7.70;;;3.97;;
15307;SDS011;7755;52.208;6.964;2022-10-22T09:55:13;5.93;;;3.80;;
15307;SDS011;7755;52.208;6.964;2022-10-22T09:59:18;8.13;;;3.90;;
15307;SDS011;7755;52.208;6.964;2022-10-22T10:03:27;5.30;;;3.67;;
15307;SDS011;7755;52.208;6.964;2022-10-22T10:07:31;9.60;;;4.50;;
15307;SDS011;7755;52.208;6.964;2022-10-22T10:11:36;6.57;;;3.80;;
15307;SDS011;7755;52.208;6.964;2022-10-22T10:15:44;6.30;;;4.00;;
15307;SDS011;7755;52.208;6.964;2022-10-22T10:20:00;4.37;;;3.57;;
15307;SDS011;7755;52.208;6.964;2022-10-22T10:24:16;7.50;;;3.83;;
15307;SDS011;7755;52.208;6.964;2022-10-22T10:28:33;8.13;;;3.67;;
15307;SDS011;7755;52.208;6.964;2022-10-22T10:33:00;8.33;;;3.73;;
15307;SDS011;7755;52.208;6.964;2022-10-22T10:37:14;6.83;;;4.13;;
15307;SDS011;7755;52.208;6.964;2022-10-22T10:41:25;8.07;;;4.10;;
15307;SDS011;7755;52.208;6.964;2022-10-22T10:45:36;5.67;;;3.60;;
15307;SDS011;7755;52.208;6.964;2022-10-22T10:49:49;6.47;;;4.03;;
15307;SDS011;7755;52.208;6.964;2022-10-22T10:53:59;7.83;;;4.10;;
15307;SDS011;7755;52.208;6.964;2022-10-22T10:58:16;6.63;;;3.80;;
15307;SDS011;7755;52.208;6.964;2022-10-22T11:07:06;8.10;;;4.57;;
15307;SDS011;7755;52.208;6.964;2022-10-22T11:11:16;6.97;;;4.90;;
15307;SDS011;7755;52.208;6.964;2022-10-22T11:15:24;8.80;;;4.77;;
15307;SDS011;7755;52.208;6.964;2022-10-22T11:19:31;8.97;;;5.30;;
15307;SDS011;7755;52.208;6.964;2022-10-22T11:23:39;7.27;;;5.40;;
15307;SDS011;7755;52.208;6.964;2022-10-22T11:27:46;8.83;;;5.53;;
15307;SDS011;7755;52.208;6.964;2022-10-22T11:31:52;7.47;;;5.87;;
15307;SDS011;7755;52.208;6.964;2022-10-22T11:35:57;7.10;;;6.10;;
15307;SDS011;7755;52.208;6.964;2022-10-22T11:40:03;8.10;;;6.20;;
15307;SDS011;7755;52.208;6.964;2022-10-22T11:44:08;8.20;;;6.07;;
15307;SDS011;7755;52.208;6.964;2022-10-22T11:48:14;9.40;;;6.37;;
15307;SDS011;7755;52.208;6.964;2022-10-22T11:52:23;7.67;;;6.03;;
15307;SDS011;7755;52.208;6.964;2022-10-22T11:56:28;7.37;;;5.80;;
15307;SDS011;7755;52.208;6.964;2022-10-22T12:00:38;9.87;;;6.40;;
15307;SDS011;7755;52.208;6.964;2022-10-22T12:04:46;8.13;;;6.73;;
15307;SDS011;7755;52.208;6.964;2022-10-22T12:08:55;6.83;;;6.13;;
15307;SDS011;7755;52.208;6.964;2022-10-22T12:13:01;9.53;;;6.63;;
15307;SDS011;7755;52.208;6.964;2022-10-22T12:17:07;8.30;;;6.13;;
15307;SDS011;7755;52.208;6.964;2022-10-22T12:21:11;7.40;;;6.70;;
15307;SDS011;7755;52.208;6.964;2022-10-22T12:25:20;10.07;;;7.00;;
15307;SDS011;7755;52.208;6.964;2022-10-22T12:29:23;10.97;;;6.53;;
15307;SDS011;7755;52.208;6.964;2022-10-22T12:33:25;7.33;;;6.47;;
15307;SDS011;7755;52.208;6.964;2022-10-22T12:37:33;8.57;;;6.30;;
15307;SDS011;7755;52.208;6.964;2022-10-22T12:41:37;9.80;;;7.10;;
15307;SDS011;7755;52.208;6.964;2022-10-22T12:45:40;7.90;;;6.80;;
15307;SDS011;7755;52.208;6.964;2022-10-22T12:49:45;7.80;;;6.60;;
15307;SDS011;7755;52.208;6.964;2022-10-22T12:53:49;7.73;;;6.40;;
15307;SDS011;7755;52.208;6.964;2022-10-22T12:57:54;12.30;;;7.43;;
15307;SDS011;7755;52.208;6.964;2022-10-22T13:01:57;10.13;;;6.67;;
15307;SDS011;7755;52.208;6.964;2022-10-22T13:06:12;9.57;;;7.33;;
15307;SDS011;7755;52.208;6.964;2022-10-22T13:10:23;7.77;;;6.63;;
15307;SDS011;7755;52.208;6.964;2022-10-22T13:14:28;9.33;;;6.67;;
15307;SDS011;7755;52.208;6.964;2022-10-22T13:18:32;7.93;;;6.23;;
15307;SDS011;7755;52.208;6.964;2022-10-22T13:22:34;9.23;;;5.93;;
15307;SDS011;7755;52.208;6.964;2022-10-22T13:26:37;9.70;;;6.10;;
15307;SDS011;7755;52.208;6.964;2022-10-22T13:30:41;12.00;;;7.90;;
15307;SDS011;7755;52.208;6.964;2022-10-22T13:34:52;9.60;;;6.30;;
15307;SDS011;7755;52.208;6.964;2022-10-22T13:38:56;8.20;;;5.47;;
15307;SDS011;7755;52.208;6.964;2022-10-22T13:42:57;9.97;;;5.47;;
15307;SDS011;7755;52.208;6.964;2022-10-22T13:47:00;10.87;;;5.43;;
15307;SDS011;7755;52.208;6.964;2022-10-22T13:51:03;8.03;;;5.53;;
15307;SDS011;7755;52.208;6.964;2022-10-22T13:55:12;9.23;;;5.30;;
15307;SDS011;7755;52.208;6.964;2022-10-22T13:59:16;10.30;;;5.47;;
15307;SDS011;7755;52.208;6.964;2022-10-22T14:03:19;8.13;;;5.10;;
15307;SDS011;7755;52.208;6.964;2022-10-22T14:07:22;7.47;;;5.50;;
15307;SDS011;7755;52.208;6.964;2022-10-22T14:11:24;7.33;;;4.40;;
15307;SDS011;7755;52.208;6.964;2022-10-22T14:15:27;6.73;;;4.90;;
15307;SDS011;7755;52.208;6.964;2022-10-22T14:19:31;5.47;;;4.93;;
15307;SDS011;7755;52.208;6.964;2022-10-22T14:23:33;8.03;;;5.60;;
15307;SDS011;7755;52.208;6.964;2022-10-22T14:27:36;7.47;;;5.17;;
15307;SDS011;7755;52.208;6.964;2022-10-22T14:31:38;5.87;;;4.87;;
15307;SDS011;7755;52.208;6.964;2022-10-22T14:35:43;6.30;;;5.03;;
15307;SDS011;7755;52.208;6.964;2022-10-22T14:39:45;10.23;;;4.73;;
15307;SDS011;7755;52.208;6.964;2022-10-22T14:43:51;7.97;;;5.20;;
15307;SDS011;7755;52.208;6.964;2022-10-22T14:47:54;10.43;;;5.30;;
15307;SDS011;7755;52.208;6.964;2022-10-22T14:51:57;7.47;;;5.27;;
15307;SDS011;7755;52.208;6.964;2022-10-22T14:55:59;5.90;;;4.80;;
15307;SDS011;7755;52.208;6.964;2022-10-22T15:00:03;10.40;;;4.80;;
15307;SDS011;7755;52.208;6.964;2022-10-22T15:04:05;8.83;;;5.13;;
15307;SDS011;7755;52.208;6.964;2022-10-22T15:08:08;5.73;;;4.70;;
15307;SDS011;7755;52.208;6.964;2022-10-22T15:12:10;10.10;;;5.03;;
15307;SDS011;7755;52.208;6.964;2022-10-22T15:16:13;7.73;;;5.07;;
15307;SDS011;7755;52.208;6.964;2022-10-22T15:20:17;8.17;;;5.10;;
15307;SDS011;7755;52.208;6.964;2022-10-22T15:24:20;7.57;;;5.57;;
15307;SDS011;7755;52.208;6.964;2022-10-22T15:28:22;7.10;;;5.17;;
15307;SDS011;7755;52.208;6.964;2022-10-22T15:32:24;9.37;;;5.33;;
15307;SDS011;7755;52.208;6.964;2022-10-22T15:36:27;5.83;;;5.33;;
15307;SDS011;7755;52.208;6.964;2022-10-22T15:40:30;10.63;;;5.37;;
15307;SDS011;7755;52.208;6.964;2022-10-22T15:44:32;9.20;;;5.53;;
15307;SDS011;7755;52.208;6.964;2022-10-22T15:48:34;10.77;;;6.13;;
15307;SDS011;7755;52.208;6.964;2022-10-22T15:52:36;7.13;;;4.97;;
15307;SDS011;7755;52.208;6.964;2022-10-22T15:56:39;8.10;;;5.47;;
15307;SDS011;7755;52.208;6.964;2022-10-22T16:00:41;9.50;;;6.17;;
15307;SDS011;7755;52.208;6.964;2022-10-22T16:04:43;11.07;;;6.23;;
15307;SDS011;7755;52.208;6.964;2022-10-22T16:08:44;12.10;;;8.27;;
15307;SDS011;7755;52.208;6.964;2022-10-22T16:12:47;9.00;;;8.10;;
15307;SDS011;7755;52.208;6.964;2022-10-22T16:16:51;10.93;;;7.43;;
15307;SDS011;7755;52.208;6.964;2022-10-22T16:20:54;7.77;;;6.97;;
15307;SDS011;7755;52.208;6.964;2022-10-22T16:24:56;8.57;;;7.07;;
15307;SDS011;7755;52.208;6.964;2022-10-22T16:28:59;8.47;;;7.57;;
15307;SDS011;7755;52.208;6.964;2022-10-22T16:33:01;9.07;;;6.90;;
15307;SDS011;7755;52.208;6.964;2022-10-22T16:37:04;7.80;;;6.50;;
15307;SDS011;7755;52.208;6.964;2022-10-22T16:41:09;10.70;;;6.83;;
15307;SDS011;7755;52.208;6.964;2022-10-22T16:45:14;8.60;;;6.20;;
15307;SDS011;7755;52.208;6.964;2022-10-22T16:49:17;6.57;;;5.53;;
15307;SDS011;7755;52.208;6.964;2022-10-22T16:53:19;6.40;;;5.27;;
15307;SDS011;7755;52.208;6.964;2022-10-22T16:57:21;7.20;;;6.50;;
15307;SDS011;7755;52.208;6.964;2022-10-22T17:01:25;8.60;;;6.53;;
15307;SDS011;7755;52.208;6.964;2022-10-22T17:05:28;6.23;;;5.73;;
15307;SDS011;7755;52.208;6.964;2022-10-22T17:09:30;6.53;;;5.87;;
15307;SDS011;7755;52.208;6.964;2022-10-22T17:13:32;7.67;;;6.83;;
15307;SDS011;7755;52.208;6.964;2022-10-22T17:17:35;7.40;;;5.90;;
15307;SDS011;7755;52.208;6.964;2022-10-22T17:21:38;6.47;;;5.93;;
15307;SDS011;7755;52.208;6.964;2022-10-22T17:25:40;8.00;;;6.40;;
15307;SDS011;7755;52.208;6.964;2022-10-22T17:29:43;5.90;;;5.40;;
15307;SDS011;7755;52.208;6.964;2022-10-22T17:33:46;6.17;;;5.57;;
15307;SDS011;7755;52.208;6.964;2022-10-22T17:37:49;8.03;;;6.70;;
15307;SDS011;7755;52.208;6.964;2022-10-22T17:41:50;8.73;;;7.13;;
15307;SDS011;7755;52.208;6.964;2022-10-22T17:45:52;10.23;;;9.13;;
15307;SDS011;7755;52.208;6.964;2022-10-22T17:50:05;14.03;;;12.60;;
15307;SDS011;7755;52.208;6.964;2022-10-22T17:54:08;13.90;;;11.87;;
15307;SDS011;7755;52.208;6.964;2022-10-22T17:58:10;15.63;;;13.17;;
15307;SDS011;7755;52.208;6.964;2022-10-22T18:02:13;15.80;;;13.00;;
15307;SDS011;7755;52.208;6.964;2022-10-22T18:06:17;14.27;;;12.27;;
15307;SDS011;7755;52.208;6.964;2022-10-22T18:10:19;12.87;;;11.57;;
15307;SDS011;7755;52.208;6.964;2022-10-22T18:14:21;21.17;;;17.40;;
15307;SDS011;7755;52.208;6.964;2022-10-22T18:18:23;19.47;;;16.97;;
15307;SDS011;7755;52.208;6.964;2022-10-22T18:22:27;18.33;;;13.73;;
15307;SDS011;7755;52.208;6.964;2022-10-22T18:26:28;13.43;;;11.90;;
15307;SDS011;7755;52.208;6.964;2022-10-22T18:30:30;12.37;;;11.17;;
15307;SDS011;7755;52.208;6.964;2022-10-22T18:34:32;11.97;;;10.40;;
15307;SDS011;7755;52.208;6.964;2022-10-22T18:38:36;10.63;;;9.57;;
15307;SDS011;7755;52.208;6.964;2022-10-22T18:42:38;9.67;;;8.70;;
15307;SDS011;7755;52.208;6.964;2022-10-22T18:46:40;13.43;;;12.13;;
15307;SDS011;7755;52.208;6.964;2022-10-22T18:50:42;13.53;;;11.23;;
15307;SDS011;7755;52.208;6.964;2022-10-22T18:54:46;11.53;;;10.33;;
15307;SDS011;7755;52.208;6.964;2022-10-22T18:58:48;11.70;;;10.50;;
15307;SDS011;7755;52.208;6.964;2022-10-22T19:02:50;10.60;;;9.60;;
15307;SDS011;7755;52.208;6.964;2022-10-22T19:06:51;10.97;;;9.97;;
15307;SDS011;7755;52.208;6.964;2022-10-22T19:10:55;13.23;;;11.83;;
15307;SDS011;7755;52.208;6.964;2022-10-22T19:14:56;12.63;;;11.33;;
15307;SDS011;7755;52.208;6.964;2022-10-22T19:18:59;11.80;;;10.67;;
15307;SDS011;7755;52.208;6.964;2022-10-22T19:23:02;13.37;;;12.07;;
15307;SDS011;7755;52.208;6.964;2022-10-22T19:27:06;12.63;;;11.53;;
15307;SDS011;7755;52.208;6.964;2022-10-22T19:31:09;13.67;;;12.37;;
15307;SDS011;7755;52.208;6.964;2022-10-22T19:35:12;18.27;;;16.37;;
15307;SDS011;7755;52.208;6.964;2022-10-22T19:39:14;17.10;;;15.50;;
15307;SDS011;7755;52.208;6.964;2022-10-22T19:43:18;16.13;;;14.73;;
15307;SDS011;7755;52.208;6.964;2022-10-22T19:47:20;17.67;;;16.10;;
15307;SDS011;7755;52.208;6.964;2022-10-22T19:51:22;21.57;;;19.33;;
15307;SDS011;7755;52.208;6.964;2022-10-22T19:55:26;17.23;;;15.63;;
15307;SDS011;7755;52.208;6.964;2022-10-22T19:59:29;15.77;;;14.20;;
15307;SDS011;7755;52.208;6.964;2022-10-22T20:03:32;18.53;;;16.73;;
15307;SDS011;7755;52.208;6.964;2022-10-22T20:07:35;14.70;;;13.30;;
15307;SDS011;7755;52.208;6.964;2022-10-22T20:11:39;14.37;;;13.07;;
15307;SDS011;7755;52.208;6.964;2022-10-22T20:15:42;16.90;;;15.10;;
15307;SDS011;7755;52.208;6.964;2022-10-22T20:19:48;13.00;;;11.67;;
15307;SDS011;7755;52.208;6.964;2022-10-22T20:23:51;12.73;;;11.47;;
15307;SDS011;7755;52.208;6.964;2022-10-22T20:27:54;13.63;;;12.37;;
15307;SDS011;7755;52.208;6.964;2022-10-22T20:31:57;14.57;;;13.27;;
15307;SDS011;7755;52.208;6.964;2022-10-22T20:35:59;15.17;;;13.80;;
15307;SDS011;7755;52.208;6.964;2022-10-22T20:40:02;13.47;;;12.17;;
15307;SDS011;7755;52.208;6.964;2022-10-22T20:44:05;12.70;;;11.40;;
15307;SDS011;7755;52.208;6.964;2022-10-22T20:48:08;11.97;;;10.77;;
15307;SDS011;7755;52.208;6.964;2022-10-22T20:52:10;9.40;;;8.60;;
15307;SDS011;7755;52.208;6.964;2022-10-22T20:56:12;8.73;;;8.03;;
15307;SDS011;7755;52.208;6.964;2022-10-22T21:00:14;8.73;;;7.90;;
15307;SDS011;7755;52.208;6.964;2022-10-22T21:04:18;9.67;;;8.87;;
15307;SDS011;7755;52.208;6.964;2022-10-22T21:08:21;9.63;;;8.73;;
15307;SDS011;7755;52.208;6.964;2022-10-22T21:12:22;11.87;;;10.77;;
15307;SDS011;7755;52.208;6.964;2022-10-22T21:16:24;12.60;;;11.47;;
15307;SDS011;7755;52.208;6.964;2022-10-22T21:20:28;12.10;;;11.00;;
15307;SDS011;7755;52.208;6.964;2022-10-22T21:24:29;11.33;;;10.40;;
15307;SDS011;7755;52.208;6.964;2022-10-22T21:28:31;10.50;;;9.57;;
15307;SDS011;7755;52.208;6.964;2022-10-22T21:32:34;9.63;;;8.80;;
15307;SDS011;7755;52.208;6.964;2022-10-22T21:36:37;8.80;;;8.00;;
15307;SDS011;7755;52.208;6.964;2022-10-22T21:40:39;10.07;;;9.17;;
15307;SDS011;7755;52.208;6.964;2022-10-22T21:44:41;10.67;;;9.77;;
15307;SDS011;7755;52.208;6.964;2022-10-22T21:48:43;10.23;;;9.23;;
15307;SDS011;7755;52.208;6.964;2022-10-22T21:52:48;8.63;;;7.93;;
15307;SDS011;7755;52.208;6.964;2022-10-22T21:56:50;7.73;;;6.77;;
15307;SDS011;7755;52.208;6.964;2022-10-22T22:00:53;8.30;;;7.50;;
15307;SDS011;7755;52.208;6.964;2022-10-22T22:04:56;8.13;;;7.43;;
15307;SDS011;7755;52.208;6.964;2022-10-22T22:08:59;8.40;;;7.60;;
15307;SDS011;7755;52.208;6.964;2022-10-22T22:13:02;9.03;;;8.23;;
15307;SDS011;7755;52.208;6.964;2022-10-22T22:17:04;9.30;;;8.50;;
15307;SDS011;7755;52.208;6.964;2022-10-22T22:21:06;8.43;;;7.73;;
15307;SDS011;7755;52.208;6.964;2022-10-22T22:25:11;8.17;;;7.10;;
15307;SDS011;7755;52.208;6.964;2022-10-22T22:29:13;7.23;;;6.53;;
15307;SDS011;7755;52.208;6.964;2022-10-22T22:33:14;11.50;;;10.33;;
15307;SDS011;7755;52.208;6.964;2022-10-22T22:37:17;11.93;;;10.73;;
15307;SDS011;7755;52.208;6.964;2022-10-22T22:41:20;8.87;;;8.10;;
15307;SDS011;7755;52.208;6.964;2022-10-22T22:45:22;9.23;;;8.43;;
15307;SDS011;7755;52.208;6.964;2022-10-22T22:49:24;8.60;;;7.80;;
15307;SDS011;7755;52.208;6.964;2022-10-22T22:53:25;8.67;;;7.87;;
15307;SDS011;7755;52.208;6.964;2022-10-22T22:57:29;7.20;;;6.60;;
15307;SDS011;7755;52.208;6.964;2022-10-22T23:01:31;7.77;;;7.07;;
15307;SDS011;7755;52.208;6.964;2022-10-22T23:05:35;7.57;;;6.97;;
15307;SDS011;7755;52.208;6.964;2022-10-22T23:09:37;6.73;;;6.23;;
15307;SDS011;7755;52.208;6.964;2022-10-22T23:13:41;7.27;;;6.53;;
15307;SDS011;7755;52.208;6.964;2022-10-22T23:17:43;7.93;;;7.33;;
15307;SDS011;7755;52.208;6.964;2022-10-22T23:21:45;8.77;;;7.30;;
15307;SDS011;7755;52.208;6.964;2022-10-22T23:25:48;10.33;;;9.33;;
15307;SDS011;7755;52.208;6.964;2022-10-22T23:29:51;9.60;;;8.60;;
15307;SDS011;7755;52.208;6.964;2022-10-22T23:33:52;9.07;;;8.17;;
15307;SDS011;7755;52.208;6.964;2022-10-22T23:37:54;9.37;;;8.47;;
15307;SDS011;7755;52.208;6.964;2022-10-22T23:41:56;10.27;;;9.20;;
15307;SDS011;7755;52.208;6.964;2022-10-22T23:45:59;9.03;;;8.27;;
15307;SDS011;7755;52.208;6.964;2022-10-22T23:50:01;9.37;;;8.57;;
15307;SDS011;7755;52.208;6.964;2022-10-22T23:54:04;9.60;;;8.73;;
15307;SDS011;7755;52.208;6.964;2022-10-22T23:58:07;9.67;;;8.57;;
